createdAt,value
2022-11-30T00:00:53.637Z,101786.25
2022-11-30T00:01:56.013Z,101787.22
2022-11-30T00:02:59.639Z,101784.44
2022-11-30T00:04:01.900Z,101786.25
2022-11-30T00:05:05.432Z,101785.44
2022-11-30T00:06:08.939Z,101783.72
2022-11-30T00:07:12.003Z,101782.91
2022-11-30T00:08:15.720Z,101786.53
2022-11-30T00:09:18.821Z,101788.22
2022-11-30T00:10:21.477Z,101783.72
2022-11-30T00:11:26.472Z,101779.44
2022-11-30T00:12:28.915Z,101782.06
2022-11-30T00:13:32.051Z,101787.22
2022-11-30T00:14:34.181Z,101781.22
2022-11-30T00:15:37.785Z,101786.38
2022-11-30T00:16:39.934Z,101777.63
2022-11-30T00:17:43.143Z,101781.09
2022-11-30T00:18:46.447Z,101784.56
2022-11-30T00:19:48.636Z,101785.44
2022-11-30T00:20:51.839Z,101790.72
2022-11-30T00:21:55.333Z,101782.91
2022-11-30T00:22:58.834Z,101788.88
2022-11-30T00:24:02.366Z,101762.00
2022-11-30T00:25:06.236Z,101785.28
2022-11-30T00:26:10.693Z,101791.44
2022-11-30T00:27:13.844Z,101795.03
2022-11-30T00:28:15.962Z,101793.09
2022-11-30T00:29:19.245Z,101790.59
2022-11-30T00:30:21.342Z,101794.88
2022-11-30T00:31:25.028Z,101803.53
2022-11-30T00:32:29.229Z,101807.84
2022-11-30T00:33:33.277Z,101801.72
2022-11-30T00:34:36.388Z,101806.88
2022-11-30T00:35:38.441Z,101806.19
2022-11-30T00:36:41.646Z,101796.84
2022-11-30T00:37:44.267Z,101805.34
2022-11-30T00:38:48.100Z,101809.81
2022-11-30T00:39:51.591Z,101801.47
2022-11-30T00:40:54.818Z,101815.78
2022-11-30T00:41:56.944Z,101816.50
2022-11-30T00:43:00.156Z,101813.84
2022-11-30T00:44:02.237Z,101817.19
2022-11-30T00:45:15.173Z,101810.50
2022-11-30T00:46:17.588Z,101825.00
2022-11-30T00:47:20.908Z,101815.25
2022-11-30T00:48:23.600Z,101803.81
2022-11-30T00:49:27.029Z,101815.25
2022-11-30T00:50:30.199Z,101817.63
2022-11-30T00:51:33.590Z,101824.72
2022-11-30T00:52:36.211Z,101836.16
2022-11-30T00:53:40.600Z,101818.59
2022-11-30T00:54:42.945Z,101831.72
2022-11-30T00:55:48.291Z,101767.72
2022-11-30T00:56:50.730Z,101817.75
2022-11-30T00:57:54.267Z,101825.84
2022-11-30T00:58:56.708Z,101832.00
2022-11-30T01:00:00.207Z,101794.91
2022-11-30T01:01:02.845Z,101825.00
2022-11-30T01:02:06.351Z,101823.50
2022-11-30T01:03:09.860Z,101828.78
2022-11-30T01:04:13.491Z,101822.94
2022-11-30T01:05:15.953Z,101829.19
2022-11-30T01:06:19.567Z,101833.38
2022-11-30T01:07:22.138Z,101830.88
2022-11-30T01:08:26.636Z,101833.66
2022-11-30T01:09:29.381Z,101827.53
2022-11-30T01:10:34.335Z,101822.66
2022-11-30T01:11:38.042Z,101833.66
2022-11-30T01:12:41.725Z,101834.63
2022-11-30T01:13:44.240Z,101834.75
2022-11-30T01:14:48.045Z,101839.09
2022-11-30T01:15:50.786Z,101834.75
2022-11-30T01:16:56.356Z,101821.09
2022-11-30T01:18:01.282Z,101836.56
2022-11-30T01:19:04.181Z,101826.25
2022-11-30T01:20:09.233Z,101827.25
2022-11-30T01:21:14.050Z,101825.16
2022-11-30T01:22:17.683Z,101821.94
2022-11-30T01:23:20.389Z,101826.97
2022-11-30T01:24:23.902Z,101822.09
2022-11-30T01:25:26.485Z,101825.31
2022-11-30T01:26:30.075Z,101827.94
2022-11-30T01:27:34.035Z,101827.25
2022-11-30T01:28:38.143Z,101830.75
2022-11-30T01:29:40.925Z,101825.69
2022-11-30T01:30:44.618Z,101826.41
2022-11-30T01:31:47.210Z,101833.50
2022-11-30T01:32:50.777Z,101825.56
2022-11-30T01:33:55.106Z,101833.63
2022-11-30T01:34:58.659Z,101830.03
2022-11-30T01:36:03.051Z,101829.19
2022-11-30T01:37:07.038Z,101827.53
2022-11-30T01:38:09.954Z,101827.53
2022-11-30T01:39:13.537Z,101825.69
2022-11-30T01:40:16.012Z,101827.53
2022-11-30T01:41:23.173Z,101823.88
2022-11-30T01:42:26.029Z,101816.50
2022-11-30T01:43:42.320Z,101815.25
2022-11-30T01:44:53.934Z,101823.03
2022-11-30T01:45:57.638Z,101824.75
2022-11-30T01:47:04.023Z,101809.00
2022-11-30T01:48:10.586Z,101814.97
2022-11-30T01:49:18.141Z,101811.34
2022-11-30T01:50:25.102Z,101819.16
2022-11-30T01:51:31.930Z,101814.69
2022-11-30T01:52:38.094Z,101824.31
2022-11-30T01:53:40.453Z,101812.72
2022-11-30T01:54:47.972Z,101819.00
2022-11-30T01:55:50.604Z,101817.34
2022-11-30T01:56:57.402Z,101813.84
2022-11-30T01:58:05.044Z,101813.84
2022-11-30T01:59:09.297Z,101813.84
2022-11-30T02:00:14.948Z,101805.50
2022-11-30T02:01:17.216Z,101806.91
2022-11-30T02:02:24.075Z,101814.00
2022-11-30T02:03:33.520Z,101814.84
2022-11-30T02:04:39.233Z,101821.94
2022-11-30T02:05:42.111Z,101817.59
2022-11-30T02:06:45.817Z,101822.78
2022-11-30T02:07:48.266Z,101822.78
2022-11-30T02:08:52.218Z,101823.59
2022-11-30T02:09:54.358Z,101828.91
2022-11-30T02:11:01.294Z,101827.53
2022-11-30T02:12:05.767Z,101826.25
2022-11-30T02:13:34.955Z,101829.91
2022-11-30T02:14:44.192Z,101823.75
2022-11-30T02:15:58.933Z,101824.75
2022-11-30T02:17:10.828Z,101826.53
2022-11-30T02:18:17.491Z,101828.34
2022-11-30T02:20:03.675Z,101825.03
2022-11-30T02:21:14.590Z,101825.97
2022-11-30T02:22:29.384Z,101828.63
2022-11-30T02:24:07.369Z,101819.84
2022-11-30T02:25:18.564Z,101823.47
2022-11-30T02:26:40.896Z,101820.81
2022-11-30T02:28:01.200Z,101828.78
2022-11-30T02:29:14.085Z,101826.97
2022-11-30T02:30:18.929Z,101825.13
2022-11-30T02:31:28.408Z,101824.19
2022-11-30T02:32:36.211Z,101825.84
2022-11-30T02:33:42.223Z,101822.47
2022-11-30T02:34:47.417Z,101829.19
2022-11-30T02:35:55.556Z,101830.84
2022-11-30T02:36:59.684Z,101829.03
2022-11-30T02:38:04.919Z,101826.53
2022-11-30T02:39:09.725Z,101826.41
2022-11-30T02:40:16.967Z,101824.59
2022-11-30T02:41:19.147Z,101826.41
2022-11-30T02:42:22.354Z,101819.59
2022-11-30T02:43:26.955Z,101824.59
2022-11-30T02:44:31.633Z,101830.75
2022-11-30T02:45:42.023Z,101820.25
2022-11-30T02:46:55.699Z,101828.09
2022-11-30T02:48:02.775Z,101826.25
2022-11-30T02:49:12.349Z,101828.91
2022-11-30T02:50:18.158Z,101832.53
2022-11-30T02:51:25.921Z,101816.09
2022-11-30T02:52:30.511Z,101830.75
2022-11-30T02:53:33.733Z,101824.59
2022-11-30T02:54:35.969Z,101821.09
2022-11-30T02:55:39.158Z,101821.94
2022-11-30T02:56:41.342Z,101825.69
2022-11-30T02:57:44.583Z,101828.19
2022-11-30T02:58:46.960Z,101826.41
2022-11-30T02:59:51.643Z,101823.88
2022-11-30T03:00:53.766Z,101825.56
2022-11-30T03:01:57.537Z,101834.34
2022-11-30T03:02:59.947Z,101830.84
2022-11-30T03:04:03.247Z,101832.53
2022-11-30T03:05:06.121Z,101836.84
2022-11-30T03:06:09.401Z,101843.00
2022-11-30T03:07:11.533Z,101835.91
2022-11-30T03:08:14.728Z,101835.91
2022-11-30T03:09:16.985Z,101842.00
2022-11-30T03:10:20.152Z,101837.84
2022-11-30T03:11:22.264Z,101840.19
2022-11-30T03:12:25.520Z,101852.47
2022-11-30T03:13:27.710Z,101842.72
2022-11-30T03:14:30.825Z,101852.34
2022-11-30T03:15:35.180Z,101846.91
2022-11-30T03:16:38.446Z,101856.53
2022-11-30T03:17:40.693Z,101845.91
2022-11-30T03:18:44.329Z,101845.06
2022-11-30T03:19:46.641Z,101848.56
2022-11-30T03:20:49.752Z,101844.25
2022-11-30T03:21:52.075Z,101839.34
2022-11-30T03:22:55.369Z,101846.91
2022-11-30T03:23:57.564Z,101842.56
2022-11-30T03:25:00.711Z,101848.00
2022-11-30T03:26:04.079Z,101859.44
2022-11-30T03:27:07.301Z,101853.44
2022-11-30T03:28:09.479Z,101852.47
2022-11-30T03:29:12.701Z,101855.09
2022-11-30T03:30:15.117Z,101855.09
2022-11-30T03:31:19.788Z,101852.47
2022-11-30T03:32:22.046Z,101856.94
2022-11-30T03:33:25.491Z,101863.19
2022-11-30T03:34:28.624Z,101865.03
2022-11-30T03:35:31.758Z,101857.09
2022-11-30T03:36:34.004Z,101868.63
2022-11-30T03:37:37.445Z,101857.22
2022-11-30T03:38:40.274Z,101856.38
2022-11-30T03:39:43.473Z,101854.44
2022-11-30T03:40:45.627Z,101857.91
2022-11-30T03:41:48.849Z,101857.91
2022-11-30T03:42:51.000Z,101855.25
2022-11-30T03:43:54.382Z,101858.75
2022-11-30T03:44:56.544Z,101858.75
2022-11-30T03:46:00.030Z,101856.09
2022-11-30T03:47:04.691Z,101848.16
2022-11-30T03:48:07.216Z,101848.16
2022-11-30T03:49:10.486Z,101851.22
2022-11-30T03:50:12.762Z,101856.09
2022-11-30T03:51:16.264Z,101855.25
2022-11-30T03:52:18.512Z,101854.44
2022-11-30T03:53:23.934Z,101866.84
2022-11-30T03:54:26.086Z,101859.88
2022-11-30T03:55:29.250Z,101858.03
2022-11-30T03:56:31.526Z,101858.03
2022-11-30T03:57:34.716Z,101858.88
2022-11-30T03:58:37.275Z,101859.72
2022-11-30T03:59:40.431Z,101867.69
2022-11-30T04:00:42.652Z,101869.34
2022-11-30T04:01:45.829Z,101871.00
2022-11-30T04:02:49.475Z,101860.41
2022-11-30T04:03:53.332Z,101861.25
2022-11-30T04:04:55.472Z,101871.00
2022-11-30T04:05:59.135Z,101870.19
2022-11-30T04:07:01.322Z,101864.88
2022-11-30T04:08:04.860Z,101866.69
2022-11-30T04:09:07.036Z,101874.63
2022-11-30T04:10:11.650Z,101877.28
2022-11-30T04:11:14.225Z,101870.31
2022-11-30T04:12:17.445Z,101872.97
2022-11-30T04:13:19.670Z,101871.16
2022-11-30T04:14:22.788Z,101875.63
2022-11-30T04:15:24.933Z,101870.31
2022-11-30T04:16:28.157Z,101872.00
2022-11-30T04:17:30.384Z,101872.84
2022-11-30T04:18:36.522Z,101875.63
2022-11-30T04:19:38.690Z,101867.53
2022-11-30T04:20:41.994Z,101874.63
2022-11-30T04:21:45.147Z,101869.34
2022-11-30T04:22:47.372Z,101872.97
2022-11-30T04:23:50.527Z,101872.97
2022-11-30T04:24:52.710Z,101874.78
2022-11-30T04:25:55.922Z,101877.28
2022-11-30T04:26:58.081Z,101885.22
2022-11-30T04:28:01.260Z,101872.00
2022-11-30T04:29:04.759Z,101883.44
2022-11-30T04:30:09.477Z,101886.91
2022-11-30T04:31:12.280Z,101889.97
2022-11-30T04:32:15.495Z,101876.31
2022-11-30T04:33:17.635Z,101883.28
2022-11-30T04:34:22.164Z,101884.94
2022-11-30T04:35:24.356Z,101892.09
2022-11-30T04:36:27.525Z,101884.25
2022-11-30T04:37:29.721Z,101889.44
2022-11-30T04:38:33.307Z,101887.59
2022-11-30T04:39:35.738Z,101884.00
2022-11-30T04:40:40.955Z,101871.56
2022-11-30T04:41:43.111Z,101886.78
2022-11-30T04:42:46.447Z,101886.66
2022-11-30T04:43:48.624Z,101883.28
2022-11-30T04:44:51.832Z,101874.63
2022-11-30T04:45:53.974Z,101883.28
2022-11-30T04:46:57.247Z,101879.78
2022-11-30T04:47:59.496Z,101878.13
2022-11-30T04:49:03.104Z,101880.94
2022-11-30T04:50:08.280Z,101879.94
2022-11-30T04:51:11.712Z,101883.56
2022-11-30T04:52:13.894Z,101879.09
2022-11-30T04:53:17.256Z,101874.63
2022-11-30T04:54:19.537Z,101877.16
2022-11-30T04:55:22.901Z,101883.28
2022-11-30T04:56:25.019Z,101879.78
2022-11-30T04:57:28.320Z,101872.28
2022-11-30T04:58:30.466Z,101878.00
2022-11-30T04:59:33.782Z,101884.94
2022-11-30T05:00:36.251Z,101876.06
2022-11-30T05:01:39.410Z,101882.16
2022-11-30T05:02:41.931Z,101875.34
2022-11-30T05:03:45.034Z,101875.78
2022-11-30T05:04:47.494Z,101879.38
2022-11-30T05:05:52.293Z,101877.44
2022-11-30T05:06:54.567Z,101889.88
2022-11-30T05:07:59.526Z,101888.03
2022-11-30T05:09:01.719Z,101883.72
2022-11-30T05:10:05.850Z,101889.97
2022-11-30T05:11:07.957Z,101898.06
2022-11-30T05:12:11.138Z,101899.88
2022-11-30T05:13:13.269Z,101899.19
2022-11-30T05:14:16.632Z,101894.72
2022-11-30T05:15:19.252Z,101895.56
2022-11-30T05:16:22.416Z,101903.34
2022-11-30T05:17:24.751Z,101912.16
2022-11-30T05:18:29.386Z,101909.50
2022-11-30T05:19:31.594Z,101907.84
2022-11-30T05:20:34.771Z,101902.78
2022-11-30T05:21:41.317Z,101909.78
2022-11-30T05:22:50.013Z,101906.00
2022-11-30T05:23:52.390Z,101909.50
2022-11-30T05:24:55.553Z,101909.50
2022-11-30T05:25:57.788Z,101907.69
2022-11-30T05:27:01.232Z,101912.00
2022-11-30T05:28:03.419Z,101905.88
2022-11-30T05:29:07.468Z,101901.56
2022-11-30T05:30:11.223Z,101906.00
2022-11-30T05:31:14.566Z,101913.94
2022-11-30T05:32:16.761Z,101907.84
2022-11-30T05:33:19.982Z,101909.06
2022-11-30T05:34:22.147Z,101910.63
2022-11-30T05:35:25.326Z,101910.63
2022-11-30T05:36:27.515Z,101905.31
2022-11-30T05:37:32.083Z,101900.84
2022-11-30T05:38:34.314Z,101912.56
2022-11-30T05:39:37.498Z,101912.72
2022-11-30T05:40:39.641Z,101915.34
2022-11-30T05:41:43.141Z,101920.66
2022-11-30T05:42:45.252Z,101920.66
2022-11-30T05:43:48.478Z,101918.97
2022-11-30T05:44:50.848Z,101918.81
2022-11-30T05:45:54.325Z,101920.66
2022-11-30T05:46:56.635Z,101909.22
2022-11-30T05:47:59.881Z,101914.50
2022-11-30T05:49:02.092Z,101918.00
2022-11-30T05:50:06.296Z,101920.66
2022-11-30T05:51:10.365Z,101915.34
2022-11-30T05:52:13.681Z,101914.50
2022-11-30T05:53:17.314Z,101918.97
2022-11-30T05:54:20.628Z,101919.81
2022-11-30T05:55:22.844Z,101916.31
2022-11-30T05:56:26.447Z,101896.91
2022-11-30T05:57:28.616Z,101916.31
2022-11-30T05:58:31.908Z,101926.91
2022-11-30T05:59:34.555Z,101917.31
2022-11-30T06:00:37.939Z,101922.59
2022-11-30T06:01:41.180Z,101925.25
2022-11-30T06:02:43.577Z,101926.09
2022-11-30T06:03:46.923Z,101922.47
2022-11-30T06:04:49.275Z,101926.78
2022-11-30T06:05:53.089Z,101932.91
2022-11-30T06:06:55.874Z,101931.13
2022-11-30T06:08:00.732Z,101930.28
2022-11-30T06:09:04.573Z,101936.28
2022-11-30T06:10:10.062Z,101930.13
2022-11-30T06:11:12.530Z,101931.81
2022-11-30T06:12:15.652Z,101941.56
2022-11-30T06:13:18.070Z,101940.59
2022-11-30T06:14:21.292Z,101936.28
2022-11-30T06:15:23.448Z,101933.47
2022-11-30T06:16:26.645Z,101930.84
2022-11-30T06:17:28.811Z,101939.63
2022-11-30T06:18:32.259Z,101933.47
2022-11-30T06:19:34.475Z,101939.78
2022-11-30T06:20:37.700Z,101930.97
2022-11-30T06:21:39.935Z,101937.22
2022-11-30T06:22:46.656Z,101938.91
2022-11-30T06:23:48.762Z,101942.53
2022-11-30T06:24:53.327Z,101936.69
2022-11-30T06:25:55.482Z,101944.22
2022-11-30T06:26:58.689Z,101940.59
2022-11-30T06:28:00.831Z,101939.78
2022-11-30T06:29:03.980Z,101936.97
2022-11-30T06:30:07.435Z,101945.75
2022-11-30T06:31:11.399Z,101941.28
2022-11-30T06:32:13.742Z,101942.94
2022-11-30T06:33:16.911Z,101943.94
2022-11-30T06:34:19.167Z,101938.63
2022-11-30T06:35:22.317Z,101943.50
2022-11-30T06:36:24.600Z,101938.78
2022-11-30T06:37:27.743Z,101948.25
2022-11-30T06:38:30.315Z,101943.81
2022-11-30T06:40:04.309Z,101946.44
2022-11-30T06:41:04.620Z,101942.00
2022-11-30T06:42:06.875Z,101947.16
2022-11-30T06:43:10.066Z,101951.47
2022-11-30T06:44:12.282Z,101950.50
2022-11-30T06:45:15.783Z,101955.66
2022-11-30T06:46:18.148Z,101954.69
2022-11-30T06:47:21.385Z,101951.06
2022-11-30T06:48:23.599Z,101953.03
2022-11-30T06:49:26.812Z,101952.88
2022-11-30T06:50:28.995Z,101950.38
2022-11-30T06:51:32.146Z,101956.63
2022-11-30T06:52:35.084Z,101947.00
2022-11-30T06:53:43.491Z,101949.66
2022-11-30T06:54:46.706Z,101959.28
2022-11-30T06:55:50.166Z,101942.94
2022-11-30T06:56:54.719Z,101952.47
2022-11-30T06:57:56.842Z,101954.41
2022-11-30T06:59:00.032Z,101956.19
2022-11-30T07:00:04.189Z,101954.53
2022-11-30T07:01:08.582Z,101951.03
2022-11-30T07:02:17.510Z,101947.44
2022-11-30T07:03:21.516Z,101949.25
2022-11-30T07:04:23.680Z,101954.53
2022-11-30T07:05:27.032Z,101953.00
2022-11-30T07:06:30.176Z,101956.47
2022-11-30T07:07:32.520Z,101958.31
2022-11-30T07:08:35.812Z,101963.63
2022-11-30T07:09:38.983Z,101957.47
2022-11-30T07:10:41.445Z,101955.78
2022-11-30T07:11:44.580Z,101961.91
2022-11-30T07:12:48.074Z,101961.06
2022-11-30T07:13:51.261Z,101965.56
2022-11-30T07:14:55.568Z,101963.72
2022-11-30T07:15:59.056Z,101964.69
2022-11-30T07:17:04.677Z,101970.84
2022-11-30T07:18:08.234Z,101966.38
2022-11-30T07:19:11.429Z,101967.34
2022-11-30T07:20:13.889Z,101965.56
2022-11-30T07:21:17.044Z,101970.00
2022-11-30T07:22:19.238Z,101969.00
2022-11-30T07:23:39.755Z,101964.69
2022-11-30T07:25:14.972Z,101975.28
2022-11-30T07:26:18.337Z,101969.00
2022-11-30T07:27:21.658Z,101965.56
2022-11-30T07:28:25.210Z,101970.84
2022-11-30T07:29:28.466Z,101972.66
2022-11-30T07:30:31.680Z,101966.50
2022-11-30T07:31:35.622Z,101978.78
2022-11-30T07:32:37.773Z,101970.72
2022-11-30T07:33:40.908Z,101970.72
2022-11-30T07:34:44.370Z,101969.00
2022-11-30T07:35:47.020Z,101970.72
2022-11-30T07:36:50.188Z,101969.84
2022-11-30T07:37:52.396Z,101969.84
2022-11-30T07:38:55.743Z,101979.63
2022-11-30T07:39:57.885Z,101976.16
2022-11-30T07:41:01.058Z,101981.44
2022-11-30T07:42:04.415Z,101985.75
2022-11-30T07:43:07.291Z,101980.47
2022-11-30T07:44:12.615Z,101982.16
2022-11-30T07:45:14.951Z,101982.16
2022-11-30T07:46:19.185Z,101993.56
2022-11-30T07:47:22.445Z,101980.19
2022-11-30T07:48:24.769Z,101984.81
2022-11-30T07:49:28.007Z,101986.31
2022-11-30T07:50:30.118Z,101978.38
2022-11-30T07:51:33.705Z,101987.19
2022-11-30T07:52:36.898Z,101990.63
2022-11-30T07:53:39.101Z,101992.34
2022-11-30T07:54:42.324Z,101989.69
2022-11-30T07:55:44.757Z,101998.59
2022-11-30T07:56:47.912Z,101996.06
2022-11-30T07:57:50.315Z,102001.38
2022-11-30T07:58:57.834Z,101995.25
2022-11-30T08:00:01.376Z,101993.44
2022-11-30T08:01:05.804Z,101998.72
2022-11-30T08:02:12.042Z,102005.72
2022-11-30T08:03:14.290Z,102002.09
2022-11-30T08:04:17.536Z,102003.78
2022-11-30T08:05:20.754Z,101998.72
2022-11-30T08:06:33.512Z,102003.63
2022-11-30T08:07:41.381Z,102005.31
2022-11-30T08:08:46.446Z,102008.94
2022-11-30T08:09:49.155Z,102002.66
2022-11-30T08:10:52.449Z,102001.66
2022-11-30T08:11:54.580Z,102008.66
2022-11-30T08:12:58.329Z,102003.50
2022-11-30T08:14:01.841Z,102002.66
2022-11-30T08:15:19.834Z,102008.94
2022-11-30T08:16:26.087Z,102004.44
2022-11-30T08:17:28.311Z,102001.13
2022-11-30T08:18:31.698Z,102010.88
2022-11-30T08:19:35.114Z,102003.06
2022-11-30T08:20:38.288Z,102011.00
2022-11-30T08:21:40.533Z,102015.47
2022-11-30T08:22:43.920Z,102003.34
2022-11-30T08:23:49.007Z,102009.31
2022-11-30T08:24:52.318Z,102012.81
2022-11-30T08:25:54.522Z,102011.84
2022-11-30T08:26:57.692Z,102017.13
2022-11-30T08:28:00.129Z,102018.81
2022-11-30T08:29:03.914Z,102012.69
2022-11-30T08:30:09.794Z,102016.88
2022-11-30T08:31:15.597Z,102019.53
2022-11-30T08:32:18.122Z,102017.69
2022-11-30T08:33:21.744Z,102022.19
2022-11-30T08:34:26.627Z,102014.91
2022-11-30T08:35:28.880Z,102025.41
2022-11-30T08:36:32.894Z,102025.28
2022-11-30T08:37:38.054Z,102019.97
2022-11-30T08:38:42.153Z,102016.34
2022-11-30T08:39:45.346Z,102020.66
2022-11-30T08:40:47.558Z,102018.84
2022-11-30T08:41:52.211Z,102022.19
2022-11-30T08:42:55.418Z,102023.88
2022-11-30T08:43:57.847Z,102021.22
2022-11-30T08:45:01.278Z,102022.06
2022-11-30T08:46:27.560Z,102028.06
2022-11-30T08:47:30.160Z,102029.03
2022-11-30T08:48:33.428Z,102037.69
2022-11-30T08:49:36.589Z,102029.72
2022-11-30T08:50:38.770Z,102034.22
2022-11-30T08:52:15.384Z,102035.03
2022-11-30T08:53:06.585Z,102042.72
2022-11-30T08:54:08.811Z,102040.06
2022-11-30T08:55:12.017Z,102042.59
2022-11-30T08:56:16.928Z,102042.59
2022-11-30T08:57:21.628Z,102039.81
2022-11-30T08:58:23.871Z,102046.78
2022-11-30T08:59:27.277Z,102043.13
2022-11-30T09:00:30.585Z,102048.44
2022-11-30T09:01:34.148Z,102050.28
2022-11-30T09:02:38.415Z,102048.44
2022-11-30T09:03:42.896Z,102050.13
2022-11-30T09:04:45.530Z,102050.13
2022-11-30T09:05:48.741Z,102050.13
2022-11-30T09:06:50.913Z,102047.63
2022-11-30T09:07:54.195Z,102051.78
2022-11-30T09:08:59.084Z,102059.75
2022-11-30T09:10:02.368Z,102055.44
2022-11-30T09:11:12.390Z,102055.56
2022-11-30T09:12:15.721Z,102061.59
2022-11-30T09:13:19.245Z,102057.09
2022-11-30T09:14:22.501Z,102058.78
2022-11-30T09:15:25.739Z,102055.16
2022-11-30T09:16:29.539Z,102056.81
2022-11-30T09:17:34.289Z,102063.81
2022-11-30T09:18:37.669Z,102063.81
2022-11-30T09:19:40.921Z,102065.47
2022-11-30T09:20:44.069Z,102064.66
2022-11-30T09:21:51.975Z,102057.53
2022-11-30T09:22:55.755Z,102065.34
2022-11-30T09:23:58.160Z,102059.22
2022-11-30T09:25:01.378Z,102059.09
2022-11-30T09:26:07.163Z,102060.75
2022-11-30T09:27:10.713Z,102064.25
2022-11-30T09:28:13.986Z,102063.25
2022-11-30T09:29:17.343Z,102066.75
2022-11-30T09:30:20.641Z,102076.38
2022-11-30T09:31:24.247Z,102062.97
2022-11-30T09:32:27.609Z,102068.03
2022-11-30T09:33:32.452Z,102058.09
2022-11-30T09:34:35.845Z,102059.25
2022-11-30T09:35:38.013Z,102068.59
2022-11-30T09:36:41.355Z,102070.28
2022-11-30T09:37:43.478Z,102073.91
2022-11-30T09:38:47.141Z,102058.00
2022-11-30T09:39:50.345Z,102067.75
2022-11-30T09:40:56.878Z,102065.81
2022-11-30T09:42:23.037Z,102067.47
2022-11-30T09:43:37.272Z,102071.81
2022-11-30T09:44:50.595Z,102061.91
2022-11-30T09:45:58.124Z,102059.09
2022-11-30T09:47:08.456Z,102062.47
2022-11-30T09:48:26.111Z,102058.00
2022-11-30T09:49:33.734Z,102068.47
2022-11-30T09:50:43.147Z,102075.59
2022-11-30T09:51:47.759Z,102065.97
2022-11-30T09:52:54.888Z,102057.88
2022-11-30T09:54:01.855Z,102061.22
2022-11-30T09:55:10.303Z,102069.03
2022-11-30T09:56:22.736Z,102072.53
2022-11-30T09:57:29.075Z,102061.66
2022-11-30T09:58:40.987Z,102068.63
2022-11-30T09:59:48.736Z,102062.34
2022-11-30T10:00:52.014Z,102063.03
2022-11-30T10:01:57.146Z,102070.88
2022-11-30T10:03:05.069Z,102067.25
2022-11-30T10:04:21.335Z,102073.25
2022-11-30T10:05:30.018Z,102067.81
2022-11-30T10:06:42.793Z,102064.16
2022-11-30T10:08:08.250Z,102071.16
2022-11-30T10:09:27.380Z,102062.22
2022-11-30T10:10:38.107Z,102063.88
2022-11-30T10:11:48.785Z,102067.38
2022-11-30T10:13:00.941Z,102065.56
2022-11-30T10:14:19.248Z,102069.06
2022-11-30T10:15:32.270Z,102073.66
2022-11-30T10:16:41.932Z,102072.81
2022-11-30T10:17:54.747Z,102065.00
2022-11-30T10:19:05.559Z,102059.00
2022-11-30T10:20:37.557Z,102065.28
2022-11-30T10:21:54.279Z,102061.78
2022-11-30T10:23:09.588Z,102063.59
2022-11-30T10:24:30.766Z,102063.59
2022-11-30T10:25:42.805Z,102061.66
2022-11-30T10:26:54.722Z,102067.81
2022-11-30T10:28:24.366Z,102068.66
2022-11-30T10:29:35.332Z,102060.69
2022-11-30T10:30:38.637Z,102062.34
2022-11-30T10:31:42.964Z,102056.91
2022-11-30T10:32:50.374Z,102066.66
2022-11-30T10:33:55.440Z,102056.78
2022-11-30T10:35:04.727Z,102060.97
2022-11-30T10:36:14.201Z,102059.00
2022-11-30T10:37:20.899Z,102058.88
2022-11-30T10:38:29.067Z,102060.53
2022-11-30T10:39:36.929Z,102054.25
2022-11-30T10:40:45.628Z,102056.09
2022-11-30T10:41:52.788Z,102062.22
2022-11-30T10:43:07.132Z,102057.59
2022-11-30T10:44:16.148Z,102058.59
2022-11-30T10:45:23.035Z,102061.25
2022-11-30T10:46:32.274Z,102055.81
2022-11-30T10:47:37.277Z,102054.94
2022-11-30T10:48:44.488Z,102052.31
2022-11-30T10:49:50.847Z,102059.41
2022-11-30T10:50:53.712Z,102062.22
2022-11-30T10:52:03.093Z,102060.53
2022-11-30T10:53:06.473Z,102053.56
2022-11-30T10:54:16.354Z,102053.56
2022-11-30T10:55:22.481Z,102056.22
2022-11-30T10:56:27.078Z,102050.06
2022-11-30T10:57:32.814Z,102054.41
2022-11-30T10:58:40.777Z,102051.75
2022-11-30T10:59:47.139Z,102052.59
2022-11-30T11:00:57.242Z,102056.22
2022-11-30T11:02:01.199Z,102052.72
2022-11-30T11:03:04.498Z,102053.56
2022-11-30T11:04:15.544Z,102054.69
2022-11-30T11:05:23.977Z,102055.53
2022-11-30T11:06:26.809Z,102054.53
2022-11-30T11:07:33.154Z,102058.88
2022-11-30T11:08:36.537Z,102049.22
2022-11-30T11:09:41.243Z,102050.06
2022-11-30T11:10:46.630Z,102048.28
2022-11-30T11:11:54.181Z,102052.59
2022-11-30T11:12:57.567Z,102054.41
2022-11-30T11:14:19.398Z,102053.56
2022-11-30T11:15:24.519Z,102050.06
2022-11-30T11:16:26.698Z,102050.91
2022-11-30T11:17:33.101Z,102051.88
2022-11-30T11:18:36.861Z,102050.22
2022-11-30T11:19:41.980Z,102048.53
2022-11-30T11:20:45.027Z,102052.16
2022-11-30T11:21:51.382Z,102048.66
2022-11-30T11:22:56.040Z,102054.13
2022-11-30T11:23:59.798Z,102055.25
2022-11-30T11:25:20.617Z,102051.03
2022-11-30T11:26:25.611Z,102050.34
2022-11-30T11:27:30.878Z,102048.66
2022-11-30T11:28:36.515Z,102047.97
2022-11-30T11:29:39.924Z,102053.28
2022-11-30T11:30:42.257Z,102054.13
2022-11-30T11:31:47.391Z,102056.63
2022-11-30T11:33:00.050Z,102052.16
2022-11-30T11:34:03.773Z,102057.34
2022-11-30T11:35:34.309Z,102054.53
2022-11-30T11:36:37.812Z,102053.41
2022-11-30T11:37:41.627Z,102055.09
2022-11-30T11:38:47.364Z,102051.59
2022-11-30T11:40:02.164Z,102054.25
2022-11-30T11:41:08.356Z,102051.59
2022-11-30T11:42:20.641Z,102056.06
2022-11-30T11:43:26.888Z,102056.06
2022-11-30T11:44:30.223Z,102057.91
2022-11-30T11:45:39.430Z,102056.19
2022-11-30T11:46:55.485Z,102058.84
2022-11-30T11:48:00.949Z,102076.59
2022-11-30T11:49:06.447Z,102059.00
2022-11-30T11:50:50.384Z,102054.69
2022-11-30T11:51:48.679Z,102056.50
2022-11-30T11:53:06.194Z,102057.47
2022-11-30T11:54:23.084Z,102051.31
2022-11-30T11:55:25.342Z,102063.75
2022-11-30T11:56:32.550Z,102056.63
2022-11-30T11:57:44.662Z,102068.91
2022-11-30T11:58:52.350Z,102067.09
2022-11-30T11:59:59.828Z,102060.00
2022-11-30T12:01:37.866Z,102062.78
2022-11-30T12:02:38.145Z,102069.88
2022-11-30T12:03:56.579Z,102063.03
2022-11-30T12:05:04.167Z,102064.59
2022-11-30T12:06:12.988Z,102061.94
2022-11-30T12:07:25.200Z,102068.91
2022-11-30T12:08:36.352Z,102064.31
2022-11-30T12:09:51.208Z,102073.97
2022-11-30T12:10:58.321Z,102069.47
2022-11-30T12:12:01.707Z,102060.56
2022-11-30T12:13:12.014Z,102064.03
2022-11-30T12:14:17.413Z,102066.66
2022-11-30T12:15:23.054Z,102063.22
2022-11-30T12:16:38.242Z,102064.88
2022-11-30T12:17:50.767Z,102066.81
2022-11-30T12:19:00.133Z,102062.50
2022-11-30T12:20:14.181Z,102064.16
2022-11-30T12:21:26.960Z,102059.13
2022-11-30T12:22:48.126Z,102058.28
2022-11-30T12:24:04.915Z,102067.25
2022-11-30T12:25:26.520Z,102058.56
2022-11-30T12:26:38.370Z,102067.53